Station: Ceduna  

  Atmospheric Gas Attenuation - ITU Rec 676-11   ----------------- dB/100km -----------------
Date Time Temp RH % AH g/m3 Dew Point Wind Direction Speed kph Gust kph Barometer mB Rainfall Since 9am 24GHz 47GHz 76GHz 122GHz 134GHz 241GHz
08/05 12:00 16 71 9.67 10.7 9 17 1033.8 0 21.7 27.8 43.9 115.2 111.5 384.3
08/05 11:50 16 71 9.67 10.7 9 9 1034 0 21.7 27.8 43.9 115.2 111.5 384.4
08/05 11:40 15.9 71 9.61 10.7 7 11 1034.2 0 21.6 27.7 43.7 114.7 110.8 382.1
08/05 11:30 15.8 71 9.56 10.6 7 17 1034.2 0 21.5 27.7 43.6 114.3 110.3 380.2
08/05 11:20 15.7 74 9.9 11.1 6 7 1034.4 0 22.2 28.3 45.1 118.2 115.1 396.9
08/05 11:10 15.5 70 9.25 10.1 11 13 1034.5 0 20.9 27.3 42.5 111.4 106.6 367.1
08/05 11:00 15.4 69 9.07 9.7 11 15 1034.4 0 20.5 27.0 41.8 109.6 104.3 359.2
08/05 10:50 15.1 72 9.29 10.1 11 13 1034.6 0 21.0 27.4 42.9 112.4 107.7 370.9
08/05 10:40 15.3 72 9.4 10.3 15 17 1034.7 0 21.2 27.6 43.2 113.3 108.9 375.2
08/05 10:30 15.2 70 9.09 9.8 11 15 1034.6 0 20.5 27.1 42.0 110.1 104.9 361.1
08/05 10:20 15.2 71 9.22 10 11 13 1034.6 0 20.8 27.3 42.6 111.5 106.6 367.2
08/05 10:10 14.7 75 9.44 10.3 9 11 1034.7 0 21.3 27.8 43.7 114.7 110.3 380.0
08/05 10:00 14.3 75 9.21 9.9 9 13 1034.6 0 20.8 27.6 43.0 112.7 107.7 370.9
08/05 09:50 14 77 9.29 10 7 9 1034.6 0 21.0 27.8 43.5 114.0 109.2 376.2
08/05 09:40 13.6 78 9.18 9.8 2 4 1034.6 0 20.8 27.7 43.3 113.4 108.3 372.8
08/05 09:30 13.3 80 9.24 9.9 6 7 1034.4 0 21.0 27.9 43.7 114.4 109.5 377.1
08/05 09:20 13.2 81 9.3 10 7 7 1034.5 0 21.1 28.1 44.0 115.3 110.5 380.5
08/05 09:10 12.9 80 9.02 9.5 0 0 1034.4 0 20.5 27.7 43.0 112.6 107.0 368.4
08/05 09:00 12.6 81 8.96 9.4 4 6 1034.3 0 20.4 27.7 42.9 112.3 106.6 366.9
08/05 08:50 12.2 82 8.85 9.2 6 6 1034.3 0 20.2 27.6 42.6 111.6 105.7 363.4
08/05 08:40 11.9 82 8.69 8.9 4 6 1034.3 0 19.9 27.4 42.1 110.3 103.9 357.1
08/05 08:30 11.6 83 8.63 8.8 4 7 1034.2 0 19.7 27.4 42.0 110.0 103.4 355.5
08/05 08:20 11.3 83 8.47 8.5 6 7 1034.2 0 19.4 27.2 41.5 108.6 101.6 349.1
08/05 08:10 11.1 84 8.46 8.5 7 9 1034.1 0 19.4 27.3 41.6 108.8 101.7 349.5
08/05 08:00 10.8 84 8.3 8.2 6 7 1034 0 19.1 27.1 41.0 107.4 99.9 343.1
08/05 07:50 10.6 85 8.3 8.2 6 6 1034 0 19.1 27.1 41.1 107.7 100.2 344.0
08/05 07:40 10.4 85 8.19 8 6 6 1033.9 0 18.9 27.0 40.8 106.7 98.9 339.5
08/05 07:30 10.3 86 8.24 8.1 6 7 1033.7 0 19.0 27.1 41.0 107.4 99.7 342.3
08/05 07:20 10.2 87 8.28 8.1 6 7 1033.8 0 19.1 27.2 41.3 108.0 100.4 344.7
08/05 07:10 10.2 88 8.38 8.3 6 7 1033.8 0 19.3 27.4 41.7 109.1 101.8 349.6
08/05 07:00 10.1 89 8.42 8.4 6 7 1033.6 0 19.4 27.5 41.9 109.7 102.5 351.9
08/05 06:50 10 89 8.36 8.3 6 7 1033.6 0 19.2 27.4 41.7 109.1 101.7 349.4
08/05 06:40 10 88 8.27 8.1 7 7 1033.6 0 19.0 27.3 41.3 108.1 100.5 345.0
08/05 06:30 9.8 89 8.26 8.1 9 11 1033.4 0 19.0 27.3 41.4 108.3 100.6 345.4
08/05 06:20 9.7 90 8.3 8.1 9 9 1033.5 0 19.1 27.4 41.6 108.9 101.3 347.8
08/05 06:10 9.7 90 8.3 8.1 6 7 1033.5 0 19.1 27.4 41.6 108.9 101.3 347.8
08/05 06:00 9.5 89 8.1 7.8 6 9 1033.2 0 18.7 27.1 40.8 106.9 98.7 338.8
08/05 05:50 9.3 89 8 7.6 7 7 1033.3 0 18.5 27.0 40.5 106.0 97.6 334.8
08/05 05:40 9.3 89 8 7.6 7 9 1033.3 0 18.5 27.0 40.5 106.0 97.6 334.8
08/05 05:30 9.2 89 7.95 7.5 11 15 1033.2 0 18.4 26.9 40.4 105.6 97.0 332.8
08/05 05:20 9.1 90 7.99 7.5 15 15 1033.3 0 18.5 27.1 40.6 106.2 97.7 335.2
08/05 05:10 9 91 8.03 7.6 15 15 1033.1 0 18.6 27.1 40.8 106.7 98.4 337.5
08/05 05:00 8.9 91 7.97 7.5 13 17 1033 0 18.5 27.1 40.6 106.2 97.7 335.0
08/05 04:50 8.8 92 8.01 7.6 13 13 1033.1 0 18.5 27.2 40.8 106.8 98.4 337.4
08/05 04:40 8.7 93 8.05 7.6 15 15 1033.1 0 18.6 27.3 41.0 107.4 99.1 339.8
08/05 04:30 8.4 94 7.98 7.5 15 17 1032.9 0 18.5 27.2 40.9 107.0 98.4 337.6
08/05 04:20 8 94 7.77 7.1 15 17 1033 0 18.1 27.0 40.2 105.1 96.0 329.0
08/05 04:10 7.9 95 7.81 7.1 17 17 1032.9 0 18.2 27.1 40.4 105.7 96.7 331.4
08/05 04:00 7.3 96 7.59 6.7 9 11 1032.8 0 17.7 26.9 39.8 104.0 94.3 323.0
08/05 03:50 6.6 96 7.25 6 7 9 1032.8 0 17.0 26.5 38.7 101.0 90.4 309.1
08/05 03:40 6.3 95 7.04 5.6 7 9 1032.8 0 16.6 26.3 37.9 99.0 87.8 300.0
08/05 03:30 6 95 6.9 5.3 6 7 1032.7 0 16.3 26.1 37.5 97.8 86.1 294.2
08/05 03:20 5.9 95 6.85 5.2 7 7 1032.8 0 16.2 26.0 37.3 97.4 85.6 292.2
08/05 03:10 6.1 95 6.94 5.4 9 9 1032.7 0 16.4 26.1 37.6 98.1 86.6 295.8
08/05 03:00 6.2 95 6.99 5.5 9 9 1032.6 0 16.5 26.2 37.7 98.6 87.2 297.9
08/05 02:50 6.5 95 7.13 5.8 9 11 1032.7 0 16.8 26.3 38.2 99.8 88.8 303.6
08/05 02:40 6.6 95 7.18 5.9 13 13 1032.8 0 16.9 26.4 38.4 100.2 89.4 305.7
08/05 02:30 6.7 94 7.15 5.8 11 13 1032.7 0 16.8 26.3 38.2 99.8 88.8 303.8
08/05 02:20 7 93 7.21 5.9 9 11 1032.8 0 16.9 26.3 38.3 100.1 89.3 305.6
08/05 02:10 7.3 93 7.35 6.2 9 9 1032.8 0 17.2 26.5 38.7 101.3 90.9 311.2
08/05 02:00 7.6 92 7.42 6.4 9 11 1032.8 0 17.3 26.5 38.9 101.7 91.6 313.5
08/05 01:50 7.9 92 7.56 6.7 11 11 1032.9 0 17.6 26.7 39.3 102.9 93.2 319.1
08/05 01:40 8.1 91 7.58 6.7 11 11 1033 0 17.7 26.6 39.3 102.8 93.2 319.3
08/05 01:30 8.5 92 7.86 7.3 13 15 1032.9 0 18.2 27.0 40.3 105.5 96.6 331.3
08/05 01:20 8.2 92 7.71 7 13 13 1033.2 0 17.9 26.8 39.8 104.2 94.9 325.3
08/05 01:10 8.3 92 7.76 7.1 11 11 1033.2 0 18.0 26.9 40.0 104.6 95.5 327.3
08/05 01:00 8.7 92 7.96 7.5 11 13 1033.1 0 18.4 27.1 40.6 106.3 97.8 335.4
08/05 00:50 9.1 93 8.25 8 11 13 1033.3 0 19.0 27.5 41.7 109.1 101.4 348.0
08/05 00:40 9 92 8.11 7.8 9 9 1033.4 0 18.8 27.3 41.1 107.7 99.5 341.5
08/05 00:30 8.8 93 8.1 7.7 7 9 1033.2 0 18.7 27.3 41.2 107.8 99.6 341.9
08/05 00:20 8.9 92 8.06 7.7 7 9 1033.2 0 18.6 27.2 41.0 107.2 98.9 339.5
08/05 00:10 9 92 8.11 7.8 11 11 1033.3 0 18.8 27.3 41.1 107.7 99.5 341.5
08/05 00:00 8.4 92 7.81 7.2 11 11 1033.2 0 18.1 27.0 40.2 105.1 96.1 329.3
07/05 23:50 8.5 91 7.77 7.1 11 11 1033.3 0 18.0 26.9 39.9 104.5 95.4 327.0
07/05 23:40 8.9 90 7.89 7.4 11 13 1033.3 0 18.3 26.9 40.3 105.3 96.6 331.2
07/05 23:30 9.3 90 8.09 7.7 9 11 1033.3 0 18.7 27.2 40.9 107.0 98.9 339.2
07/05 23:20 9.4 90 8.14 7.8 7 9 1033.5 0 18.8 27.2 41.1 107.5 99.4 341.3
07/05 23:10 9.6 89 8.16 7.9 9 11 1033.5 0 18.8 27.2 41.0 107.4 99.5 341.4
07/05 23:00 9.7 89 8.21 8 11 15 1033.4 0 18.9 27.2 41.2 107.8 100.0 343.4
07/05 22:50 9.9 89 8.31 8.2 11 13 1033.6 0 19.1 27.4 41.5 108.7 101.2 347.4
07/05 22:40 9.7 89 8.21 8 11 11 1033.6 0 18.9 27.3 41.2 107.9 100.0 343.4
07/05 22:30 9.9 89 8.31 8.2 11 13 1033.5 0 19.1 27.4 41.5 108.7 101.2 347.4
07/05 22:20 9.7 90 8.3 8.1 11 13 1033.6 0 19.1 27.4 41.6 108.9 101.3 347.8
07/05 22:10 9.5 89 8.1 7.8 13 13 1033.6 0 18.7 27.1 40.9 106.9 98.8 338.9
07/05 22:00 9.6 89 8.16 7.9 13 13 1033.5 0 18.8 27.2 41.0 107.4 99.5 341.4
07/05 21:50 9.6 88 8.06 7.7 13 13 1033.5 0 18.6 27.0 40.6 106.3 98.1 336.5
07/05 21:40 9.9 88 8.22 8 13 15 1033.4 0 18.9 27.2 41.1 107.7 99.9 343.0
07/05 21:30 10.4 85 8.19 8 11 13 1033.2 0 18.9 27.0 40.7 106.6 98.8 339.3
07/05 21:20 11.1 83 8.36 8.3 13 15 1033.3 0 19.2 27.1 41.1 107.6 100.3 344.5
07/05 21:10 11.9 80 8.47 8.6 13 15 1033.3 0 19.4 27.0 41.1 107.7 100.7 346.2
07/05 21:00 12.1 81 8.69 8.9 15 19 1033.1 0 19.8 27.3 41.9 109.9 103.5 355.8
07/05 20:50 12 81 8.63 8.8 17 17 1033.3 0 19.7 27.2 41.8 109.4 102.8 353.4
07/05 20:40 12.1 78 8.37 8.4 15 15 1033.2 0 19.2 26.8 40.6 106.3 99.1 340.5
07/05 20:30 12.2 77 8.31 8.3 15 17 1033.1 0 19.0 26.6 40.3 105.5 98.2 337.2
07/05 20:20 12.4 77 8.41 8.5 15 15 1033.1 0 19.2 26.8 40.6 106.4 99.3 341.1
07/05 20:10 12.7 76 8.46 8.6 15 17 1033.1 0 19.3 26.7 40.7 106.5 99.6 342.2
07/05 20:00 13.2 74 8.5 8.7 17 20 1033 0 19.4 26.7 40.6 106.2 99.4 341.9
07/05 19:50 13.7 71 8.41 8.5 17 19 1033 0 19.2 26.4 40.0 104.6 97.6 335.5
07/05 19:40 14.2 68 8.3 8.4 17 20 1033 0 18.9 26.0 39.3 102.8 95.5 328.3
07/05 19:30 13.8 70 8.34 8.4 13 15 1032.8 0 19.0 26.2 39.6 103.7 96.5 331.8

Last Refresh: 08-May-2026 12:08:00

Bureau of Meteorology